Time;durP1;ratioP1;P1;durP2;ratioP2;P2;SDS_P1;SDS_P2;PMS_P1;PMS_P2;Temp;Humidity;BMP_temperature;BMP_pressure;BME280_temperature;BME280_humidity;BME280_pressure;Samples;Min_cycle;Max_cycle;Signal;HPM_P1;HPM_P2
2022/01/06 00:01:31;;;;;;;4.20;2.33;;;8.00;87.70;;;;;;955414;148;27376;-81
2022/01/06 00:03:58;;;;;;;5.93;2.80;;;8.00;87.80;;;;;;941413;149;27309;-82
2022/01/06 00:06:25;;;;;;;3.67;2.60;;;8.00;87.80;;;;;;955497;148;27399;-80
2022/01/06 00:08:54;;;;;;;5.57;2.33;;;8.00;87.80;;;;;;937488;149;27342;-81
2022/01/06 00:11:17;;;;;;;1.93;1.83;;;8.00;87.80;;;;;;966474;146;27286;-81
2022/01/06 00:13:54;;;;;;;3.10;2.00;;;8.00;87.50;;;;;;959069;146;27875;-81
2022/01/06 00:16:27;;;;;;;3.93;2.33;;;7.90;87.10;;;;;;971016;146;27369;-80
2022/01/06 00:24:09;;;;;;;3.83;2.40;;;7.80;86.60;;;;;;936987;149;27514;-81
2022/01/06 00:26:36;;;;;;;3.07;2.67;;;7.70;86.60;;;;;;951238;148;27431;-79
2022/01/06 00:29:02;;;;;;;4.43;2.57;;;7.70;86.70;;;;;;962566;145;27296;-81
2022/01/06 00:31:29;;;;;;;3.47;2.03;;;7.60;87.00;;;;;;957164;146;27264;-82
2022/01/06 00:33:55;;;;;;;3.53;2.20;;;7.60;87.10;;;;;;965343;146;27309;-79
2022/01/06 00:36:22;;;;;;;2.07;1.83;;;7.50;87.40;;;;;;950372;148;27295;-82
2022/01/06 00:38:49;;;;;;;5.20;2.20;;;7.50;87.60;;;;;;957725;149;27357;-81
2022/01/06 00:41:15;;;;;;;2.57;2.30;;;7.50;87.90;;;;;;958057;148;27346;-82
2022/01/06 00:43:42;;;;;;;5.33;2.40;;;7.50;88.10;;;;;;936305;149;27371;-80
2022/01/06 00:46:08;;;;;;;2.97;2.00;;;7.50;88.20;;;;;;935288;152;27832;-81
2022/01/06 00:48:35;;;;;;;5.90;2.20;;;7.50;88.40;;;;;;930258;153;27339;-81
2022/01/06 00:51:01;;;;;;;3.57;1.87;;;7.50;88.40;;;;;;952697;150;27292;-81
2022/01/06 00:53:28;;;;;;;3.90;2.10;;;7.50;88.40;;;;;;938738;151;27433;-80
2022/01/06 00:55:55;;;;;;;2.37;1.87;;;7.50;88.10;;;;;;945105;150;27386;-82
2022/01/06 00:58:21;;;;;;;2.53;2.23;;;7.50;87.90;;;;;;942199;150;27373;-81
2022/01/06 01:00:48;;;;;;;4.33;2.43;;;7.50;87.90;;;;;;938350;150;27322;-82
2022/01/06 01:03:20;;;;;;;3.30;2.20;;;7.50;88.20;;;;;;938508;152;27709;-80
2022/01/06 01:05:47;;;;;;;2.67;2.10;;;7.40;88.40;;;;;;946909;150;27416;-82
2022/01/06 01:08:14;;;;;;;4.00;2.03;;;7.40;88.90;;;;;;944873;148;27426;-81
2022/01/06 01:10:40;;;;;;;3.50;1.87;;;7.40;89.00;;;;;;929808;153;27712;-81
2022/01/06 01:13:13;;;;;;;2.43;1.70;;;7.40;89.20;;;;;;949330;150;27277;-82
2022/01/06 01:15:44;;;;;;;1.80;1.50;;;7.50;89.30;;;;;;952590;150;27323;-81
2022/01/06 01:18:08;;;;;;;3.50;1.90;;;7.50;89.40;;;;;;952358;150;27392;-81
2022/01/06 01:20:32;;;;;;;2.47;1.70;;;7.50;89.60;;;;;;942138;148;27333;-81
2022/01/06 01:23:01;;;;;;;1.80;1.70;;;7.50;89.50;;;;;;935665;150;27484;-80
2022/01/06 01:25:31;;;;;;;2.23;1.87;;;7.50;89.60;;;;;;933559;153;27874;-79
2022/01/06 01:27:58;;;;;;;2.67;1.73;;;7.50;89.50;;;;;;932817;151;27317;-78
2022/01/06 01:30:31;;;;;;;3.40;1.87;;;7.60;89.30;;;;;;945504;151;27345;-82
2022/01/06 01:32:51;;;;;;;2.60;1.70;;;7.60;89.10;;;;;;943487;150;27256;-80
2022/01/06 01:35:17;;;;;;;2.03;1.87;;;7.50;88.60;;;;;;943529;150;27320;-79
2022/01/06 01:37:43;;;;;;;2.03;1.83;;;7.50;88.30;;;;;;940250;151;27691;-77
2022/01/06 01:40:10;;;;;;;3.00;1.70;;;7.50;88.10;;;;;;936702;152;27334;-82
2022/01/06 01:42:37;;;;;;;3.70;1.80;;;7.40;88.00;;;;;;943124;150;27347;-82
2022/01/06 01:45:03;;;;;;;3.33;1.63;;;7.30;87.90;;;;;;936349;150;27531;-77
2022/01/06 01:47:40;;;;;;;1.63;1.53;;;7.30;87.90;;;;;;945356;150;27333;-80
2022/01/06 01:50:13;;;;;;;2.33;1.80;;;7.20;88.20;;;;;;946941;147;27390;-82
2022/01/06 01:52:40;;;;;;;1.90;1.80;;;7.10;88.00;;;;;;937876;151;27486;-81
2022/01/06 01:55:07;;;;;;;1.60;1.50;;;7.00;88.10;;;;;;928329;150;27294;-81
2022/01/06 01:57:33;;;;;;;3.30;1.97;;;7.00;88.40;;;;;;948308;147;27362;-81
2022/01/06 02:00:00;;;;;;;5.87;2.53;;;6.90;88.40;;;;;;943649;147;27286;-81
2022/01/06 02:02:28;;;;;;;3.37;2.30;;;6.80;88.50;;;;;;931642;149;27346;-81
2022/01/06 02:04:53;;;;;;;1.80;1.70;;;6.70;88.70;;;;;;939566;149;27342;-82
2022/01/06 02:07:20;;;;;;;2.23;1.70;;;6.70;88.90;;;;;;939220;151;27274;-82
2022/01/06 02:09:46;;;;;;;4.03;1.90;;;6.60;88.90;;;;;;945719;149;27378;-78
2022/01/06 02:12:25;;;;;;;2.93;1.87;;;6.50;89.00;;;;;;938336;149;27938;-81
2022/01/06 02:14:51;;;;;;;2.50;2.03;;;6.50;89.10;;;;;;935970;151;27389;-81
2022/01/06 02:17:18;;;;;;;3.20;2.10;;;6.40;89.10;;;;;;939243;148;27471;-81
2022/01/06 02:19:57;;;;;;;2.20;1.87;;;6.30;89.30;;;;;;936738;149;27279;-81
2022/01/06 02:22:23;;;;;;;1.93;1.73;;;6.20;89.40;;;;;;942374;149;27445;-79
2022/01/06 02:24:50;;;;;;;4.27;2.10;;;6.20;89.60;;;;;;942028;149;27429;-82
2022/01/06 02:27:22;;;;;;;2.43;1.80;;;6.10;89.80;;;;;;954501;148;27296;-82
2022/01/06 02:29:46;;;;;;;2.37;1.90;;;6.00;90.00;;;;;;943581;149;27345;-81
2022/01/06 02:32:15;;;;;;;5.90;2.67;;;6.00;90.30;;;;;;941560;149;27373;-79
2022/01/06 02:34:39;;;;;;;4.37;2.90;;;5.90;90.50;;;;;;948202;149;27447;-82
2022/01/06 02:37:08;;;;;;;4.43;2.50;;;5.90;90.90;;;;;;945892;149;27431;-82
2022/01/06 02:39:35;;;;;;;4.30;3.03;;;5.90;91.20;;;;;;946266;149;27908;-82
2022/01/06 02:42:01;;;;;;;5.70;3.10;;;5.90;91.40;;;;;;942698;149;28752;-82
2022/01/06 02:44:30;;;;;;;3.47;1.90;;;5.90;91.70;;;;;;934153;151;27397;-81
2022/01/06 02:46:57;;;;;;;3.00;1.90;;;6.00;91.80;;;;;;948006;149;27285;-82
2022/01/06 02:49:24;;;;;;;2.47;1.90;;;6.10;92.00;;;;;;940676;149;27441;-78
2022/01/06 02:51:51;;;;;;;4.43;1.93;;;6.10;92.10;;;;;;936737;149;27411;-82
2022/01/06 02:54:17;;;;;;;2.77;1.80;;;6.20;92.20;;;;;;942842;149;27334;-81
2022/01/06 02:56:46;;;;;;;1.70;1.60;;;6.30;92.30;;;;;;936060;149;27369;-81
2022/01/06 02:59:12;;;;;;;2.77;1.70;;;6.30;92.30;;;;;;948792;149;27326;-80
2022/01/06 03:01:42;;;;;;;4.83;2.00;;;6.40;92.20;;;;;;940360;149;27353;-82
2022/01/06 03:04:11;;;;;;;3.30;1.50;;;6.50;92.20;;;;;;944628;151;27407;-79
2022/01/06 03:06:38;;;;;;;2.47;1.40;;;6.60;92.10;;;;;;935153;149;27303;-81
2022/01/06 03:09:04;;;;;;;3.27;1.53;;;6.70;92.10;;;;;;939734;149;27390;-81
2022/01/06 03:11:32;;;;;;;4.40;1.63;;;6.70;92.00;;;;;;951074;149;27354;-81
2022/01/06 03:13:58;;;;;;;3.77;2.10;;;6.80;92.00;;;;;;943049;151;27784;-82
2022/01/06 03:16:24;;;;;;;4.73;2.60;;;6.80;91.90;;;;;;935829;151;27358;-82
2022/01/06 03:18:51;;;;;;;9.80;4.00;;;6.90;91.90;;;;;;946628;149;27355;-79
2022/01/06 03:21:17;;;;;;;5.23;2.87;;;6.90;91.80;;;;;;955874;149;27411;-82
2022/01/06 03:23:44;;;;;;;4.43;2.50;;;6.90;91.80;;;;;;941199;149;27321;-81
2022/01/06 03:26:11;;;;;;;6.60;2.97;;;6.90;91.80;;;;;;951538;149;27411;-82
2022/01/06 03:28:37;;;;;;;7.00;3.27;;;7.00;91.80;;;;;;947700;149;27325;-82
2022/01/06 03:31:04;;;;;;;11.13;4.77;;;7.00;91.80;;;;;;936189;151;27363;-80
2022/01/06 03:33:30;;;;;;;5.93;3.37;;;7.00;91.70;;;;;;935563;151;27338;-81
2022/01/06 03:35:57;;;;;;;8.23;3.33;;;7.00;91.60;;;;;;948178;149;27348;-80
2022/01/06 03:38:23;;;;;;;8.37;3.13;;;7.00;91.40;;;;;;947134;150;27415;-80
2022/01/06 03:40:50;;;;;;;4.63;2.67;;;7.00;91.30;;;;;;940420;149;27353;-82
2022/01/06 03:43:17;;;;;;;6.10;2.80;;;6.90;91.20;;;;;;939092;149;27818;-80
2022/01/06 03:45:43;;;;;;;5.37;2.47;;;6.90;91.20;;;;;;941271;151;27415;-78
2022/01/06 03:48:10;;;;;;;6.03;2.63;;;6.90;91.20;;;;;;936831;151;27358;-81
2022/01/06 03:50:36;;;;;;;3.13;2.40;;;6.80;91.30;;;;;;944692;151;27337;-82
2022/01/06 03:53:03;;;;;;;4.63;2.37;;;6.80;91.40;;;;;;934492;149;27285;-81
2022/01/06 03:55:30;;;;;;;5.00;2.47;;;6.80;91.50;;;;;;944863;149;27415;-79
2022/01/06 03:57:56;;;;;;;3.23;1.90;;;6.70;91.70;;;;;;937086;149;27372;-81
2022/01/06 04:00:23;;;;;;;6.23;1.87;;;6.70;91.80;;;;;;946690;149;27348;-75
2022/01/06 04:02:49;;;;;;;3.10;1.87;;;6.70;91.90;;;;;;945150;149;27416;-73
2022/01/06 04:05:16;;;;;;;3.70;1.97;;;6.80;91.90;;;;;;943070;149;27344;-74
2022/01/06 04:07:42;;;;;;;2.97;1.73;;;6.80;92.00;;;;;;946656;148;27372;-74
2022/01/06 04:10:09;;;;;;;4.93;1.67;;;6.80;92.10;;;;;;938962;149;27416;-74
2022/01/06 04:12:37;;;;;;;2.70;1.73;;;6.80;92.10;;;;;;933360;149;28466;-74
2022/01/06 04:15:08;;;;;;;3.70;1.57;;;6.80;92.10;;;;;;946271;149;27443;-74
2022/01/06 04:17:32;;;;;;;6.20;2.40;;;6.90;92.10;;;;;;943607;148;27278;-74
2022/01/06 04:19:58;;;;;;;3.83;1.83;;;6.90;92.10;;;;;;942799;151;27837;-73
2022/01/06 04:22:25;;;;;;;3.77;1.83;;;6.90;92.00;;;;;;949768;149;27295;-74
2022/01/06 04:24:52;;;;;;;1.80;1.70;;;6.90;91.90;;;;;;951139;149;27316;-74
2022/01/06 04:27:18;;;;;;;4.87;2.07;;;7.00;91.90;;;;;;924133;150;27475;-74
2022/01/06 04:29:45;;;;;;;2.67;1.67;;;7.00;91.80;;;;;;925796;153;27336;-73
2022/01/06 04:32:11;;;;;;;3.83;1.80;;;7.00;91.70;;;;;;928027;150;27341;-74
2022/01/06 04:34:38;;;;;;;3.47;2.10;;;7.00;91.60;;;;;;939287;151;27322;-74
2022/01/06 04:37:05;;;;;;;5.50;2.13;;;7.00;91.50;;;;;;957841;147;27346;-74
2022/01/06 04:39:31;;;;;;;3.53;1.80;;;7.00;91.50;;;;;;953066;146;27272;-74
2022/01/06 04:41:58;;;;;;;5.33;2.30;;;7.00;91.60;;;;;;952137;146;27353;-74
2022/01/06 04:44:27;;;;;;;5.53;2.40;;;6.90;91.60;;;;;;948462;148;27355;-73
2022/01/06 04:46:54;;;;;;;2.90;1.90;;;6.90;91.60;;;;;;947098;146;27458;-74
2022/01/06 04:49:22;;;;;;;7.10;2.13;;;6.90;91.60;;;;;;939923;146;27330;-73
2022/01/06 04:51:47;;;;;;;3.13;1.97;;;6.90;91.60;;;;;;946806;146;27432;-74
2022/01/06 04:54:13;;;;;;;3.80;2.00;;;7.00;91.70;;;;;;941801;146;27337;-74
2022/01/06 04:56:40;;;;;;;3.87;1.80;;;7.00;91.80;;;;;;949100;147;27449;-73
2022/01/06 04:59:08;;;;;;;2.93;2.00;;;7.00;91.70;;;;;;936758;149;27829;-74
2022/01/06 05:01:36;;;;;;;5.77;2.10;;;7.00;91.70;;;;;;961423;145;27338;-73
2022/01/06 05:04:03;;;;;;;3.70;1.90;;;7.00;91.60;;;;;;938130;150;27901;-74
2022/01/06 05:06:29;;;;;;;3.83;2.10;;;7.00;91.60;;;;;;933129;150;27349;-74
2022/01/06 05:08:56;;;;;;;4.70;2.03;;;7.00;91.60;;;;;;947060;146;27878;-74
2022/01/06 05:11:23;;;;;;;4.17;2.30;;;7.00;91.60;;;;;;941576;146;27436;-73
2022/01/06 05:13:49;;;;;;;4.97;2.30;;;7.10;91.60;;;;;;959635;146;27313;-74
2022/01/06 05:16:18;;;;;;;3.97;2.33;;;7.10;91.50;;;;;;945775;146;27318;-74
2022/01/06 05:18:45;;;;;;;4.40;2.50;;;7.10;91.50;;;;;;922478;151;27339;-74
2022/01/06 05:21:11;;;;;;;5.80;2.07;;;7.10;91.40;;;;;;925994;149;27447;-74
2022/01/06 05:23:39;;;;;;;4.20;1.97;;;7.10;91.40;;;;;;947793;148;27286;-74
2022/01/06 05:26:05;;;;;;;6.03;2.47;;;7.10;91.40;;;;;;934791;149;27299;-74
2022/01/06 05:28:31;;;;;;;10.77;2.87;;;7.10;91.40;;;;;;950358;148;27447;-74
2022/01/06 05:30:58;;;;;;;4.63;2.33;;;7.20;91.30;;;;;;948008;148;27334;-74
2022/01/06 05:33:24;;;;;;;6.60;2.73;;;7.20;91.30;;;;;;939432;149;27276;-74
2022/01/06 05:35:51;;;;;;;8.50;2.80;;;7.20;91.30;;;;;;938379;148;27368;-74
2022/01/06 05:38:17;;;;;;;4.63;2.27;;;7.20;91.30;;;;;;950286;146;27325;-74
2022/01/06 05:40:44;;;;;;;4.30;2.53;;;7.20;91.30;;;;;;929666;149;27414;-74
2022/01/06 05:43:11;;;;;;;3.60;2.20;;;7.20;91.20;;;;;;951400;149;27257;-74
2022/01/06 05:45:40;;;;;;;4.30;2.20;;;7.20;91.10;;;;;;944862;149;27335;-74
2022/01/06 05:48:07;;;;;;;3.70;2.20;;;7.20;91.10;;;;;;953792;147;27436;-74
2022/01/06 05:50:33;;;;;;;3.57;1.93;;;7.20;91.00;;;;;;930757;150;27973;-73
2022/01/06 05:53:00;;;;;;;3.30;2.07;;;7.10;90.90;;;;;;925049;149;27450;-74
2022/01/06 05:55:27;;;;;;;4.30;2.30;;;7.10;90.80;;;;;;931440;149;27460;-73
2022/01/06 05:57:53;;;;;;;6.23;2.27;;;7.10;90.80;;;;;;936643;149;27425;-74
2022/01/06 06:00:20;;;;;;;6.73;2.47;;;7.00;90.80;;;;;;952897;147;27283;-74
2022/01/06 06:02:46;;;;;;;4.50;2.77;;;7.00;90.90;;;;;;946207;147;27903;-74
2022/01/06 06:05:13;;;;;;;5.87;2.50;;;7.00;90.90;;;;;;933789;149;27306;-74
2022/01/06 06:07:39;;;;;;;4.03;2.40;;;7.00;90.90;;;;;;950888;147;27446;-73
2022/01/06 06:10:06;;;;;;;5.50;2.53;;;7.00;90.90;;;;;;943402;147;27317;-74
2022/01/06 06:12:33;;;;;;;7.20;2.67;;;6.90;90.80;;;;;;945523;147;27307;-74
2022/01/06 06:14:59;;;;;;;5.03;2.37;;;6.90;90.70;;;;;;937673;149;27362;-74
2022/01/06 06:17:26;;;;;;;4.00;2.50;;;6.90;90.50;;;;;;938986;149;27241;-74
2022/01/06 06:19:52;;;;;;;6.20;2.33;;;6.80;90.50;;;;;;935444;149;27431;-74
2022/01/06 06:22:22;;;;;;;4.10;2.37;;;6.70;90.50;;;;;;936690;149;27375;-74
2022/01/06 06:24:49;;;;;;;4.10;2.23;;;6.70;90.50;;;;;;936066;149;28560;-74
2022/01/06 06:27:15;;;;;;;5.13;2.50;;;6.70;90.30;;;;;;935447;149;27367;-73
2022/01/06 06:29:42;;;;;;;4.40;2.10;;;6.60;90.60;;;;;;938984;151;27372;-73
2022/01/06 06:32:08;;;;;;;3.67;2.30;;;6.60;90.70;;;;;;945567;149;27371;-74
2022/01/06 06:34:35;;;;;;;4.40;2.07;;;6.50;90.80;;;;;;933537;149;27462;-73
2022/01/06 06:37:02;;;;;;;6.63;2.23;;;6.50;91.30;;;;;;944440;149;27360;-73
2022/01/06 06:39:28;;;;;;;5.33;2.60;;;6.50;91.10;;;;;;937064;149;27365;-73
2022/01/06 06:41:55;;;;;;;5.10;2.17;;;6.50;91.30;;;;;;939036;149;27426;-73
2022/01/06 06:44:21;;;;;;;3.70;2.43;;;6.50;91.30;;;;;;947148;149;27322;-73
2022/01/06 06:46:48;;;;;;;7.77;2.63;;;6.50;91.30;;;;;;935242;149;27425;-73
2022/01/06 06:49:14;;;;;;;5.33;2.07;;;6.50;91.30;;;;;;930269;152;27365;-73
2022/01/06 06:51:41;;;;;;;3.83;2.10;;;6.50;91.30;;;;;;927987;152;27271;-73
2022/01/06 06:54:08;;;;;;;4.03;2.00;;;6.50;91.20;;;;;;937396;152;28035;-73
2022/01/06 06:56:34;;;;;;;7.43;2.30;;;6.50;91.20;;;;;;927189;152;27322;-73
2022/01/06 06:59:01;;;;;;;2.87;2.17;;;6.50;91.10;;;;;;932302;152;27430;-73
2022/01/06 07:01:27;;;;;;;4.97;2.60;;;6.50;91.00;;;;;;934090;152;27401;-74
2022/01/06 07:03:54;;;;;;;5.23;2.27;;;6.50;91.00;;;;;;929315;152;27322;-73
2022/01/06 07:06:22;;;;;;;8.57;2.70;;;6.40;91.00;;;;;;928577;152;27449;-73
2022/01/06 07:08:47;;;;;;;3.87;1.97;;;6.40;91.00;;;;;;934790;152;27445;-73
2022/01/06 07:11:14;;;;;;;4.10;2.53;;;6.40;91.00;;;;;;927187;152;27846;-73
2022/01/06 07:13:40;;;;;;;6.20;2.40;;;6.40;91.10;;;;;;943106;151;27453;-74
2022/01/06 07:16:07;;;;;;;7.20;2.50;;;6.40;91.00;;;;;;926852;153;27540;-74
2022/01/06 07:18:33;;;;;;;4.17;2.17;;;6.30;91.00;;;;;;933884;152;27400;-74
2022/01/06 07:21:00;;;;;;;3.13;2.20;;;6.30;90.90;;;;;;936857;152;27359;-74
2022/01/06 07:23:27;;;;;;;2.53;1.97;;;6.30;90.90;;;;;;935494;151;27334;-74
2022/01/06 07:25:53;;;;;;;5.47;2.20;;;6.20;90.50;;;;;;945804;150;27482;-74
2022/01/06 07:28:20;;;;;;;5.30;2.60;;;6.20;90.80;;;;;;936125;150;27300;-74
2022/01/06 07:30:46;;;;;;;4.27;2.13;;;6.20;90.70;;;;;;929914;150;27489;-74
2022/01/06 07:33:13;;;;;;;9.83;2.20;;;6.10;90.70;;;;;;948950;150;27794;-75
2022/01/06 07:35:40;;;;;;;5.47;2.67;;;6.10;90.70;;;;;;943238;150;27324;-74
2022/01/06 07:38:06;;;;;;;5.07;2.50;;;6.00;90.70;;;;;;927634;153;27271;-74
2022/01/06 07:40:33;;;;;;;7.03;2.47;;;5.90;90.70;;;;;;935713;150;27869;-74
2022/01/06 07:42:59;;;;;;;6.83;2.67;;;5.90;90.80;;;;;;936450;151;27426;-74
2022/01/06 07:45:26;;;;;;;5.13;2.17;;;5.80;90.90;;;;;;936201;150;27365;-74
2022/01/06 07:47:57;;;;;;;6.17;3.37;;;5.80;91.00;;;;;;925120;154;27503;-74
2022/01/06 07:50:22;;;;;;;5.53;2.87;;;5.80;91.20;;;;;;941101;151;27463;-74
2022/01/06 07:52:48;;;;;;;10.67;3.87;;;5.80;91.30;;;;;;937864;152;27352;-74
2022/01/06 07:55:15;;;;;;;7.37;3.47;;;5.80;91.30;;;;;;940073;151;27371;-74
2022/01/06 07:57:41;;;;;;;7.23;3.37;;;5.80;91.40;;;;;;939046;151;27370;-74
2022/01/06 08:00:08;;;;;;;6.83;3.17;;;5.70;91.50;;;;;;937638;151;27403;-74
2022/01/06 08:02:34;;;;;;;6.77;3.37;;;5.70;91.80;;;;;;939172;151;27320;-74
2022/01/06 08:05:01;;;;;;;5.03;2.73;;;5.70;91.50;;;;;;931212;152;28049;-74
2022/01/06 08:07:28;;;;;;;4.97;2.67;;;5.70;91.50;;;;;;933782;151;27839;-74
2022/01/06 08:09:54;;;;;;;4.27;2.77;;;5.70;91.50;;;;;;930075;154;27309;-74
2022/01/06 08:12:21;;;;;;;4.17;2.57;;;5.80;91.60;;;;;;929902;153;27391;-74
2022/01/06 08:14:47;;;;;;;6.43;2.63;;;5.80;91.90;;;;;;931418;152;27864;-74
2022/01/06 08:17:14;;;;;;;4.77;2.50;;;5.90;92.60;;;;;;939840;150;27414;-74
2022/01/06 08:19:42;;;;;;;4.53;2.20;;;6.10;93.20;;;;;;931007;151;27828;-74
2022/01/06 08:22:07;;;;;;;4.93;2.80;;;6.30;93.60;;;;;;930859;153;27445;-74
2022/01/06 08:24:36;;;;;;;4.87;2.43;;;6.50;93.70;;;;;;931277;151;27353;-74
2022/01/06 08:27:08;;;;;;;3.33;2.30;;;6.70;93.50;;;;;;937204;152;27898;-74
2022/01/06 08:29:30;;;;;;;4.93;2.63;;;6.90;93.20;;;;;;929507;153;27362;-74
2022/01/06 08:31:56;;;;;;;5.13;2.43;;;7.00;92.90;;;;;;943485;150;27409;-74
2022/01/06 08:34:25;;;;;;;7.10;3.00;;;7.20;92.50;;;;;;947481;150;27308;-74
2022/01/06 08:36:53;;;;;;;4.57;2.50;;;7.30;92.10;;;;;;937689;150;27288;-74
2022/01/06 08:39:19;;;;;;;5.67;2.40;;;7.40;91.70;;;;;;947049;150;27789;-74
2022/01/06 08:41:45;;;;;;;6.00;2.50;;;7.50;91.50;;;;;;945043;150;27343;-74
2022/01/06 08:44:12;;;;;;;5.03;2.50;;;7.50;91.50;;;;;;922057;154;27868;-74
2022/01/06 08:46:38;;;;;;;5.67;2.47;;;7.60;91.60;;;;;;938013;151;27366;-74
2022/01/06 08:49:06;;;;;;;7.80;2.80;;;7.70;91.70;;;;;;951195;147;27331;-74
2022/01/06 08:51:32;;;;;;;5.80;2.40;;;7.80;91.70;;;;;;946165;146;27320;-74
2022/01/06 08:53:58;;;;;;;6.60;2.73;;;7.90;91.70;;;;;;934232;150;27427;-74
2022/01/06 08:56:25;;;;;;;4.60;2.30;;;8.00;91.60;;;;;;935808;149;27329;-74
2022/01/06 08:58:51;;;;;;;3.43;2.20;;;8.10;91.40;;;;;;935344;149;27222;-74
2022/01/06 09:01:18;;;;;;;5.13;2.53;;;8.10;91.20;;;;;;937999;149;27419;-74
2022/01/06 09:03:44;;;;;;;4.93;2.40;;;8.20;91.00;;;;;;940230;149;27310;-74
2022/01/06 09:06:11;;;;;;;6.37;2.63;;;8.20;90.70;;;;;;939769;149;27287;-74
2022/01/06 09:08:38;;;;;;;4.53;3.17;;;8.30;90.60;;;;;;929250;153;27373;-74
2022/01/06 09:11:04;;;;;;;5.30;2.43;;;8.30;90.50;;;;;;956162;147;27811;-73
2022/01/06 09:13:31;;;;;;;4.70;2.67;;;8.30;90.30;;;;;;928121;150;27432;-74
2022/01/06 09:15:57;;;;;;;5.43;2.60;;;8.30;90.30;;;;;;935994;150;27350;-74
2022/01/06 09:18:24;;;;;;;6.00;2.47;;;8.40;90.30;;;;;;935934;152;27397;-74
2022/01/06 09:20:51;;;;;;;6.20;2.70;;;8.40;90.40;;;;;;939498;149;27344;-73
2022/01/06 09:23:17;;;;;;;8.90;3.03;;;8.50;90.60;;;;;;944947;149;27411;-74
2022/01/06 09:25:46;;;;;;;6.77;2.83;;;8.60;90.60;;;;;;942147;149;27354;-74
2022/01/06 09:28:13;;;;;;;5.03;2.40;;;8.60;90.60;;;;;;932142;149;27364;-74
2022/01/06 09:30:40;;;;;;;6.13;2.67;;;8.70;90.50;;;;;;946860;149;27456;-74
2022/01/06 09:33:06;;;;;;;6.70;2.50;;;8.80;90.50;;;;;;938993;149;27274;-74
2022/01/06 09:35:33;;;;;;;7.13;2.67;;;8.90;90.40;;;;;;937759;149;27354;-73
2022/01/06 09:38:00;;;;;;;6.83;3.10;;;9.00;90.20;;;;;;937223;149;27376;-73
2022/01/06 09:40:29;;;;;;;5.60;2.90;;;9.00;89.80;;;;;;945208;149;27438;-73
2022/01/06 09:42:55;;;;;;;7.43;3.43;;;9.10;89.20;;;;;;932347;149;27354;-73
2022/01/06 09:45:24;;;;;;;7.23;2.90;;;9.20;88.80;;;;;;942847;149;27387;-74
2022/01/06 09:47:51;;;;;;;16.43;3.30;;;9.20;88.40;;;;;;944072;151;27291;-74
2022/01/06 09:50:18;;;;;;;5.07;2.80;;;9.20;88.00;;;;;;949747;147;27465;-74
2022/01/06 09:52:45;;;;;;;7.33;3.00;;;9.20;87.80;;;;;;943345;148;27290;-74
2022/01/06 09:55:11;;;;;;;6.67;3.17;;;9.20;87.60;;;;;;942908;149;27347;-73
2022/01/06 09:57:37;;;;;;;3.77;2.43;;;9.20;87.40;;;;;;941229;149;27255;-73
2022/01/06 10:00:04;;;;;;;8.13;3.10;;;9.20;87.60;;;;;;947353;149;27411;-73
2022/01/06 10:02:33;;;;;;;5.83;3.03;;;9.30;88.10;;;;;;956976;149;27354;-73
2022/01/06 10:05:00;;;;;;;8.87;2.93;;;9.40;88.30;;;;;;935063;149;27491;-73
2022/01/06 10:07:26;;;;;;;5.63;3.27;;;9.50;88.60;;;;;;934731;149;27436;-74
2022/01/06 10:09:53;;;;;;;9.37;3.87;;;9.60;88.80;;;;;;937326;149;27321;-73
2022/01/06 10:12:20;;;;;;;7.90;3.53;;;9.70;89.20;;;;;;947129;149;27402;-73
2022/01/06 10:14:46;;;;;;;7.77;2.90;;;9.90;88.20;;;;;;951242;149;27697;-73
2022/01/06 10:17:13;;;;;;;7.73;2.60;;;10.00;87.50;;;;;;947055;149;27430;-73
2022/01/06 10:19:42;;;;;;;8.67;3.43;;;10.10;86.80;;;;;;935845;149;27473;-73
2022/01/06 10:22:14;;;;;;;8.07;3.30;;;10.20;86.00;;;;;;941362;149;27393;-74
2022/01/06 10:24:42;;;;;;;6.97;3.03;;;10.30;85.10;;;;;;940139;149;27495;-73
2022/01/06 10:27:07;;;;;;;8.70;3.37;;;10.30;84.60;;;;;;927475;149;27358;-73
2022/01/06 10:29:34;;;;;;;6.83;2.60;;;10.40;84.30;;;;;;936211;149;27375;-73
2022/01/06 10:32:01;;;;;;;10.17;3.50;;;10.40;84.20;;;;;;948964;149;27349;-73
2022/01/06 10:34:33;;;;;;;8.20;3.20;;;10.40;83.70;;;;;;939429;149;27415;-73
2022/01/06 10:36:59;;;;;;;6.70;2.93;;;10.50;82.40;;;;;;950278;149;27443;-73
2022/01/06 10:39:27;;;;;;;6.97;3.40;;;10.50;82.60;;;;;;928777;152;27395;-73
2022/01/06 10:41:53;;;;;;;10.23;3.43;;;10.50;82.10;;;;;;945556;149;27372;-73
2022/01/06 10:44:19;;;;;;;7.10;2.80;;;10.50;81.50;;;;;;943720;149;27896;-73
2022/01/06 10:46:46;;;;;;;7.70;3.13;;;10.40;80.90;;;;;;942477;149;27419;-73
2022/01/06 10:49:12;;;;;;;6.77;2.83;;;10.40;80.50;;;;;;942619;149;27293;-73
2022/01/06 10:51:45;;;;;;;6.47;3.43;;;10.30;80.40;;;;;;944138;149;27296;-73
2022/01/06 10:54:12;;;;;;;4.13;2.70;;;10.30;80.40;;;;;;945345;149;27833;-73
2022/01/06 10:56:38;;;;;;;8.93;3.70;;;10.20;80.60;;;;;;929834;152;27369;-73
2022/01/06 10:59:05;;;;;;;7.00;3.03;;;10.10;80.80;;;;;;940539;149;27481;-73
2022/01/06 11:01:34;;;;;;;7.00;2.80;;;10.10;80.90;;;;;;943274;149;27438;-73
2022/01/06 11:04:01;;;;;;;7.63;2.90;;;10.10;81.00;;;;;;946271;149;27862;-73
2022/01/06 11:06:27;;;;;;;4.60;2.67;;;10.10;81.30;;;;;;938064;148;27759;-73
2022/01/06 11:08:54;;;;;;;6.67;2.50;;;10.20;82.50;;;;;;940637;148;27294;-73
2022/01/06 11:11:42;;;;;;;5.53;2.93;;;10.20;81.70;;;;;;944870;149;27307;-73
2022/01/06 11:13:53;;;;;;;6.07;2.67;;;10.30;82.00;;;;;;942091;151;27353;-73
2022/01/06 11:16:19;;;;;;;8.17;3.03;;;10.40;82.00;;;;;;951619;149;27310;-73
2022/01/06 11:18:54;;;;;;;8.10;3.27;;;10.50;81.60;;;;;;944921;149;27751;-73
2022/01/06 11:21:24;;;;;;;6.17;3.60;;;10.50;81.40;;;;;;948777;147;27361;-73
2022/01/06 11:23:50;;;;;;;6.33;2.87;;;10.60;81.20;;;;;;944075;151;27325;-73
2022/01/06 11:26:17;;;;;;;5.10;3.03;;;10.70;81.40;;;;;;931039;149;27352;-73
2022/01/06 11:28:43;;;;;;;8.87;3.00;;;10.70;81.50;;;;;;940641;149;27320;-73
2022/01/06 11:31:19;;;;;;;6.60;3.03;;;10.80;81.40;;;;;;947563;149;27431;-73
2022/01/06 11:33:46;;;;;;;5.30;3.03;;;11.00;81.80;;;;;;942002;149;28072;-73
2022/01/06 11:36:29;;;;;;;9.20;3.40;;;11.10;82.10;;;;;;939900;149;27430;-73
2022/01/06 11:38:54;;;;;;;5.57;3.00;;;11.20;80.90;;;;;;938346;149;27309;-74
2022/01/06 11:41:24;;;;;;;8.03;4.20;;;11.30;79.70;;;;;;948897;149;27442;-74
2022/01/06 11:43:47;;;;;;;5.03;3.20;;;11.40;80.20;;;;;;937366;149;27343;-74
2022/01/06 11:46:13;;;;;;;6.47;3.10;;;11.50;79.60;;;;;;944588;149;27319;-74
2022/01/06 11:48:48;;;;;;;8.50;3.40;;;11.50;79.10;;;;;;937381;151;27369;-73
2022/01/06 11:51:30;;;;;;;7.23;2.57;;;11.60;78.80;;;;;;939969;151;27538;-74
2022/01/06 11:53:57;;;;;;;4.73;2.50;;;11.60;78.60;;;;;;937176;151;27791;-73
2022/01/06 11:56:23;;;;;;;5.43;2.63;;;11.60;78.60;;;;;;943715;151;27752;-74
2022/01/06 11:59:01;;;;;;;7.70;3.33;;;11.70;78.20;;;;;;934280;151;27454;-74
2022/01/06 12:01:28;;;;;;;7.33;3.67;;;11.70;77.80;;;;;;948837;150;27801;-74
2022/01/06 12:03:54;;;;;;;5.20;2.83;;;11.80;77.50;;;;;;949405;149;27454;-74
2022/01/06 12:06:21;;;;;;;6.53;2.57;;;11.80;77.10;;;;;;951058;150;27259;-74
2022/01/06 12:08:50;;;;;;;4.37;2.60;;;11.80;76.80;;;;;;926887;153;27353;-73
2022/01/06 12:11:21;;;;;;;4.73;2.20;;;11.80;76.70;;;;;;934286;153;27378;-74
2022/01/06 12:13:47;;;;;;;6.37;3.03;;;11.80;76.60;;;;;;930243;153;27351;-73
2022/01/06 12:16:13;;;;;;;4.40;2.37;;;11.70;76.30;;;;;;933546;153;27399;-74
2022/01/06 12:18:40;;;;;;;11.27;3.03;;;11.70;76.10;;;;;;936952;151;27418;-74
2022/01/06 12:21:06;;;;;;;6.70;2.47;;;11.70;76.00;;;;;;931061;152;27405;-74
2022/01/06 12:23:33;;;;;;;5.10;2.70;;;11.80;76.10;;;;;;936552;152;27333;-74
2022/01/06 12:26:08;;;;;;;5.97;2.37;;;11.80;76.00;;;;;;936438;152;27412;-74
2022/01/06 12:28:32;;;;;;;6.77;2.97;;;11.80;75.70;;;;;;940077;152;27290;-74
2022/01/06 12:30:58;;;;;;;4.77;2.93;;;11.90;75.70;;;;;;935907;152;27491;-74
2022/01/06 12:33:25;;;;;;;5.23;2.67;;;11.90;75.20;;;;;;936887;149;27404;-74
2022/01/06 12:35:52;;;;;;;5.60;2.77;;;12.00;75.30;;;;;;929817;153;27394;-74
2022/01/06 12:38:23;;;;;;;5.00;2.53;;;12.00;74.60;;;;;;938902;150;27315;-74
2022/01/06 12:40:45;;;;;;;7.10;2.63;;;12.10;74.80;;;;;;942489;150;27974;-73
2022/01/06 12:43:20;;;;;;;6.47;3.13;;;12.10;74.50;;;;;;955452;150;27397;-74
2022/01/06 12:45:47;;;;;;;5.23;2.60;;;12.10;74.00;;;;;;945483;150;27333;-74
2022/01/06 12:48:14;;;;;;;4.27;2.70;;;12.10;73.70;;;;;;932436;152;27406;-74
2022/01/06 12:50:43;;;;;;;6.70;2.80;;;12.00;73.50;;;;;;932451;152;27512;-74
2022/01/06 12:53:10;;;;;;;5.20;2.60;;;12.00;72.90;;;;;;929311;153;27421;-74
2022/01/06 12:55:42;;;;;;;8.07;3.30;;;12.00;72.90;;;;;;940469;149;27337;-74
2022/01/06 12:58:09;;;;;;;4.30;2.57;;;11.90;72.60;;;;;;949921;149;27263;-74
2022/01/06 13:00:35;;;;;;;4.43;2.67;;;11.90;72.90;;;;;;929997;149;27360;-74